createdAt,value
2023-04-29T00:00:11.558Z,1.13
2023-04-29T00:02:38.493Z,1.52
2023-04-29T00:05:06.604Z,1.88
2023-04-29T00:07:33.741Z,1.90
2023-04-29T00:10:00.748Z,1.48
2023-04-29T00:12:28.383Z,1.48
2023-04-29T00:14:55.056Z,0.93
2023-04-29T00:17:21.716Z,1.35
2023-04-29T00:19:48.473Z,1.42
2023-04-29T00:22:15.539Z,0.70
2023-04-29T00:24:42.326Z,0.90
2023-04-29T00:27:09.015Z,1.23
2023-04-29T00:29:35.738Z,0.82
2023-04-29T00:32:02.333Z,1.75
2023-04-29T00:34:29.365Z,0.80
2023-04-29T00:36:55.996Z,0.52
2023-04-29T00:39:22.940Z,1.70
2023-04-29T00:41:49.678Z,2.10
2023-04-29T00:44:16.950Z,0.65
2023-04-29T00:46:43.854Z,2.35
2023-04-29T00:49:10.954Z,0.55
2023-04-29T00:51:37.609Z,2.60
2023-04-29T00:54:05.285Z,1.30
2023-04-29T00:56:32.274Z,1.58
2023-04-29T00:58:59.583Z,0.93
2023-04-29T01:01:26.383Z,1.63
2023-04-29T01:03:53.368Z,1.42
2023-04-29T01:06:33.334Z,0.70
2023-04-29T01:12:03.879Z,1.05
2023-04-29T01:14:31.577Z,1.65
2023-04-29T01:17:00.565Z,1.33
2023-04-29T01:19:41.488Z,1.20
2023-04-29T01:22:08.083Z,1.08
2023-04-29T01:24:34.667Z,1.85
2023-04-29T01:27:11.341Z,0.93
2023-04-29T01:29:51.742Z,0.90
2023-04-29T01:32:23.108Z,1.85
2023-04-29T01:35:16.894Z,1.38
2023-04-29T01:37:52.427Z,1.10
2023-04-29T01:40:22.871Z,0.75
2023-04-29T01:43:01.518Z,0.75
2023-04-29T01:45:28.975Z,1.55
2023-04-29T01:47:56.759Z,1.35
2023-04-29T01:50:23.425Z,2.25
2023-04-29T01:52:50.023Z,1.58
2023-04-29T01:55:16.929Z,2.38
2023-04-29T01:57:44.324Z,1.60
2023-04-29T02:00:11.844Z,1.38
2023-04-29T02:02:38.645Z,1.33
2023-04-29T02:05:05.697Z,2.05
2023-04-29T02:07:32.361Z,1.58
2023-04-29T02:09:59.132Z,1.23
2023-04-29T02:12:25.812Z,1.42
2023-04-29T02:14:53.290Z,1.33
2023-04-29T02:17:19.991Z,5.18
2023-04-29T02:19:46.595Z,1.27
2023-04-29T02:22:13.393Z,1.30
2023-04-29T02:24:40.038Z,1.17
2023-04-29T02:27:06.815Z,2.35
2023-04-29T02:29:33.557Z,1.08
2023-04-29T02:32:00.212Z,1.00
2023-04-29T02:34:26.860Z,2.00
2023-04-29T02:36:53.619Z,2.63
2023-04-29T02:39:20.735Z,3.47
2023-04-29T02:41:47.393Z,1.55
2023-04-29T02:44:14.107Z,1.40
2023-04-29T02:46:45.215Z,1.50
2023-04-29T02:49:13.812Z,1.13
2023-04-29T02:51:41.348Z,1.60
2023-04-29T02:54:08.029Z,1.60
2023-04-29T02:56:34.624Z,2.33
2023-04-29T02:59:01.293Z,1.67
2023-04-29T03:01:27.947Z,1.88
2023-04-29T03:03:55.065Z,1.38
2023-04-29T03:06:21.975Z,2.28
2023-04-29T03:08:48.767Z,1.73
2023-04-29T03:11:15.852Z,3.70
2023-04-29T03:13:42.573Z,1.85
2023-04-29T03:16:09.836Z,3.75
2023-04-29T03:18:36.627Z,1.63
2023-04-29T03:21:04.681Z,1.00
2023-04-29T03:23:31.454Z,1.90
2023-04-29T03:25:58.576Z,1.70
2023-04-29T03:28:25.296Z,1.15
2023-04-29T03:30:52.026Z,6.82
2023-04-29T03:33:18.788Z,1.70
2023-04-29T03:35:45.668Z,1.55
2023-04-29T03:38:12.363Z,1.77
2023-04-29T03:40:39.131Z,2.17
2023-04-29T03:43:06.798Z,1.52
2023-04-29T03:45:33.434Z,2.08
2023-04-29T03:48:00.497Z,2.92
2023-04-29T03:50:27.241Z,2.45
2023-04-29T03:52:53.846Z,2.45
2023-04-29T03:55:20.746Z,2.05
2023-04-29T03:57:47.660Z,2.20
2023-04-29T04:00:14.999Z,1.98
2023-04-29T04:02:42.206Z,2.33
2023-04-29T04:05:10.830Z,1.70
2023-04-29T04:07:37.681Z,1.92
2023-04-29T04:10:04.675Z,1.92
2023-04-29T04:12:31.418Z,2.10
2023-04-29T04:14:59.218Z,2.17
2023-04-29T04:17:25.903Z,2.00
2023-04-29T04:19:52.835Z,1.60
2023-04-29T04:22:20.183Z,3.08
2023-04-29T04:24:46.807Z,2.83
2023-04-29T04:27:13.562Z,2.10
2023-04-29T04:29:40.373Z,2.58
2023-04-29T04:32:07.165Z,2.40
2023-04-29T04:34:33.835Z,2.40
2023-04-29T04:37:00.473Z,2.00
2023-04-29T04:39:27.186Z,2.55
2023-04-29T04:41:53.780Z,2.30
2023-04-29T04:44:20.812Z,4.57
2023-04-29T04:46:47.445Z,2.47
2023-04-29T04:49:14.120Z,4.05
2023-04-29T04:51:40.772Z,4.03
2023-04-29T04:54:07.417Z,1.85
2023-04-29T04:56:37.099Z,3.22
2023-04-29T04:59:04.326Z,1.88
2023-04-29T05:01:31.008Z,2.30
2023-04-29T05:03:58.256Z,1.92
2023-04-29T05:06:24.929Z,2.55
2023-04-29T05:08:51.614Z,3.60
2023-04-29T05:11:19.238Z,2.97
2023-04-29T05:13:46.172Z,3.65
2023-04-29T05:16:12.827Z,2.15
2023-04-29T05:18:39.553Z,3.15
2023-04-29T05:21:06.332Z,3.70
2023-04-29T05:23:33.269Z,4.28
2023-04-29T05:25:59.921Z,3.78
2023-04-29T05:28:28.097Z,2.20
2023-04-29T05:30:55.152Z,2.35
2023-04-29T05:33:22.285Z,3.15
2023-04-29T05:35:48.928Z,2.67
2023-04-29T05:38:15.725Z,3.17
2023-04-29T05:40:42.424Z,6.35
2023-04-29T05:43:09.221Z,2.00
2023-04-29T05:45:35.823Z,2.45
2023-04-29T05:48:02.837Z,2.03
2023-04-29T05:50:29.608Z,2.75
2023-04-29T05:52:56.541Z,3.00
2023-04-29T05:55:23.543Z,3.13
2023-04-29T05:57:50.279Z,3.28
2023-04-29T06:00:17.158Z,3.95
2023-04-29T06:02:57.356Z,2.30
2023-04-29T06:05:25.500Z,4.32
2023-04-29T06:07:52.300Z,3.88
2023-04-29T06:10:19.050Z,2.45
2023-04-29T06:12:46.719Z,4.40
2023-04-29T06:15:13.446Z,4.00
2023-04-29T06:17:40.362Z,2.65
2023-04-29T06:20:07.998Z,2.95
2023-04-29T06:22:34.660Z,2.33
2023-04-29T06:25:01.383Z,2.97
2023-04-29T06:27:28.220Z,3.75
2023-04-29T06:29:55.133Z,3.42
2023-04-29T06:32:22.060Z,4.00
2023-04-29T06:34:48.973Z,4.47
2023-04-29T06:37:15.653Z,7.22
2023-04-29T06:39:42.246Z,4.00
2023-04-29T06:42:08.915Z,5.75
2023-04-29T06:44:35.699Z,4.78
2023-04-29T06:47:02.533Z,5.53
2023-04-29T06:49:29.221Z,8.13
2023-04-29T06:51:56.184Z,4.93
2023-04-29T06:54:22.853Z,5.32
2023-04-29T06:56:49.512Z,5.63
2023-04-29T06:59:16.268Z,5.55
2023-04-29T07:01:44.693Z,4.93
2023-04-29T07:04:12.728Z,4.88
2023-04-29T07:06:39.395Z,6.30
2023-04-29T07:09:06.059Z,3.95
2023-04-29T07:11:33.016Z,6.55
2023-04-29T07:13:59.661Z,5.05
2023-04-29T07:16:27.125Z,5.18
2023-04-29T07:18:53.778Z,5.53
2023-04-29T07:21:20.704Z,5.07
2023-04-29T07:23:48.019Z,3.97
2023-04-29T07:26:17.192Z,4.35
2023-04-29T07:28:44.449Z,4.28
2023-04-29T07:31:12.338Z,4.80
2023-04-29T07:33:39.283Z,3.65
2023-04-29T07:36:07.363Z,3.53
2023-04-29T07:38:34.679Z,4.25
2023-04-29T07:41:01.555Z,4.68
2023-04-29T07:43:28.287Z,5.85
2023-04-29T07:45:55.066Z,3.58
2023-04-29T07:48:22.287Z,6.32
2023-04-29T07:50:48.989Z,4.07
2023-04-29T07:53:16.054Z,4.63
2023-04-29T07:55:42.890Z,4.55
2023-04-29T07:58:09.569Z,4.32
2023-04-29T08:00:36.449Z,3.53
2023-04-29T08:03:03.287Z,3.63
2023-04-29T08:05:31.305Z,3.67
2023-04-29T08:07:58.090Z,3.17
2023-04-29T08:10:24.940Z,3.42
2023-04-29T08:12:54.398Z,3.55
2023-04-29T08:15:21.517Z,3.42
2023-04-29T08:17:48.202Z,11.05
2023-04-29T08:20:15.367Z,3.72
2023-04-29T08:22:42.677Z,5.72
2023-04-29T08:25:09.904Z,3.05
2023-04-29T08:27:36.766Z,5.38
2023-04-29T08:30:03.660Z,4.13
2023-04-29T08:32:30.463Z,3.97
2023-04-29T08:34:57.184Z,4.82
2023-04-29T08:37:24.013Z,4.35
2023-04-29T08:39:50.847Z,5.32
2023-04-29T08:42:18.118Z,2.80
2023-04-29T08:44:44.712Z,2.45
2023-04-29T08:47:11.772Z,2.90
2023-04-29T08:49:38.454Z,1.75
2023-04-29T08:52:05.344Z,2.20
2023-04-29T08:54:32.922Z,1.70
2023-04-29T08:57:00.388Z,3.53
2023-04-29T08:59:27.048Z,5.43
2023-04-29T09:01:53.662Z,2.05
2023-04-29T09:04:46.282Z,3.92
2023-04-29T09:07:13.281Z,1.92
2023-04-29T09:09:40.654Z,2.00
2023-04-29T09:12:07.699Z,5.20
2023-04-29T09:14:34.486Z,2.85
2023-04-29T09:17:01.269Z,2.22
2023-04-29T09:19:31.963Z,2.28
2023-04-29T09:21:58.778Z,1.45
2023-04-29T09:24:27.399Z,1.95
2023-04-29T09:26:54.213Z,2.78
2023-04-29T09:29:20.938Z,2.05
2023-04-29T09:31:47.899Z,2.22
2023-04-29T09:34:14.993Z,1.88
2023-04-29T09:36:50.982Z,2.53
2023-04-29T09:39:19.990Z,2.38
2023-04-29T09:41:59.180Z,2.30
2023-04-29T09:44:27.456Z,4.78
2023-04-29T09:49:38.633Z,1.83
2023-04-29T09:52:13.714Z,1.60
2023-04-29T09:54:41.924Z,1.73
2023-04-29T09:57:10.226Z,2.67
2023-04-29T09:59:38.465Z,1.65
2023-04-29T10:02:15.675Z,2.35
2023-04-29T10:04:42.910Z,2.05
2023-04-29T10:07:09.777Z,2.63
2023-04-29T10:09:36.831Z,2.92
2023-04-29T10:12:03.543Z,1.33
2023-04-29T10:14:30.261Z,2.33
2023-04-29T10:17:03.840Z,4.38
2023-04-29T10:19:40.284Z,5.78
2023-04-29T10:22:09.274Z,2.78
2023-04-29T10:24:37.793Z,4.15
2023-04-29T10:27:06.999Z,8.45
2023-04-29T10:29:35.033Z,2.78
2023-04-29T10:32:01.808Z,3.50
2023-04-29T10:34:28.406Z,3.35
2023-04-29T10:36:55.086Z,5.32
2023-04-29T10:39:27.528Z,2.60
2023-04-29T10:41:54.180Z,3.42
2023-04-29T10:44:21.056Z,3.20
2023-04-29T10:46:47.959Z,3.85
2023-04-29T10:49:14.741Z,5.40
2023-04-29T10:51:44.511Z,2.08
2023-04-29T10:54:16.286Z,3.13
2023-04-29T10:56:51.441Z,2.37
2023-04-29T11:02:06.688Z,2.75
2023-04-29T11:04:33.487Z,2.53
2023-04-29T11:07:01.084Z,2.55
2023-04-29T11:09:28.710Z,2.90
2023-04-29T11:14:38.698Z,5.47
2023-04-29T11:17:08.679Z,1.90
2023-04-29T11:19:37.120Z,2.35
2023-04-29T11:22:08.957Z,2.22
2023-04-29T11:24:36.846Z,3.53
2023-04-29T11:27:05.352Z,2.08
2023-04-29T11:29:33.026Z,1.92
2023-04-29T11:32:02.240Z,1.63
2023-04-29T11:34:28.989Z,2.15
2023-04-29T11:36:55.654Z,3.22
2023-04-29T11:39:22.332Z,1.85
2023-04-29T11:41:52.443Z,2.65
2023-04-29T11:44:23.038Z,2.08
2023-04-29T11:46:49.753Z,2.45
2023-04-29T11:49:16.412Z,1.75
2023-04-29T11:51:43.027Z,2.92
2023-04-29T11:54:09.710Z,1.35
2023-04-29T11:56:38.138Z,1.80
2023-04-29T11:59:08.078Z,4.90
2023-04-29T12:01:36.088Z,3.78
2023-04-29T12:04:04.000Z,2.53
2023-04-29T12:06:31.595Z,2.88
2023-04-29T12:09:00.795Z,1.95
2023-04-29T12:11:28.795Z,1.23
2023-04-29T12:13:55.993Z,2.97
2023-04-29T12:16:24.127Z,1.75
2023-04-29T12:18:51.726Z,3.10
2023-04-29T12:21:18.339Z,1.92
2023-04-29T12:23:46.366Z,1.35
2023-04-29T12:26:13.756Z,2.85
2023-04-29T12:28:42.104Z,3.10
2023-04-29T12:31:09.854Z,1.92
2023-04-29T12:33:36.677Z,0.98
2023-04-29T12:36:03.767Z,1.98
2023-04-29T12:38:31.318Z,5.03
2023-04-29T12:41:00.007Z,1.90
2023-04-29T12:43:28.823Z,1.52
2023-04-29T12:46:12.949Z,2.10
2023-04-29T12:48:41.741Z,3.00
2023-04-29T12:51:09.978Z,1.60
2023-04-29T12:53:36.695Z,2.00
2023-04-29T12:56:03.477Z,2.00
2023-04-29T12:58:30.657Z,5.78
2023-04-29T13:00:57.886Z,1.17
2023-04-29T13:03:24.976Z,1.38
2023-04-29T13:05:53.653Z,1.33
2023-04-29T13:08:20.960Z,2.35
2023-04-29T13:10:47.604Z,1.55
2023-04-29T13:13:14.170Z,1.25
2023-04-29T13:15:41.332Z,1.83
2023-04-29T13:18:08.137Z,1.42
2023-04-29T13:20:40.992Z,1.50
2023-04-29T13:23:08.605Z,2.08
2023-04-29T13:25:35.395Z,1.88
2023-04-29T13:28:02.140Z,1.77
2023-04-29T13:30:28.875Z,2.08
2023-04-29T13:32:59.913Z,2.40
2023-04-29T13:35:31.098Z,4.10
2023-04-29T13:37:57.871Z,1.10
2023-04-29T13:40:27.734Z,1.38
2023-04-29T13:43:02.111Z,8.68
2023-04-29T13:45:31.835Z,1.38
2023-04-29T13:48:09.343Z,2.40
2023-04-29T13:56:23.488Z,1.00
2023-04-29T13:59:19.614Z,1.77
2023-04-29T14:03:53.914Z,1.23
2023-04-29T14:06:20.783Z,3.80
2023-04-29T14:08:47.381Z,1.02
2023-04-29T14:11:14.304Z,1.05
2023-04-29T14:13:41.124Z,0.82
2023-04-29T14:16:09.335Z,1.05
2023-04-29T14:18:36.187Z,1.65
2023-04-29T14:21:03.159Z,5.18
2023-04-29T14:23:29.794Z,1.45
2023-04-29T14:26:06.266Z,1.35
2023-04-29T14:28:43.166Z,3.40
2023-04-29T14:31:11.171Z,1.95
2023-04-29T14:33:37.806Z,2.53
2023-04-29T14:36:05.041Z,1.27
2023-04-29T14:38:31.913Z,3.88
2023-04-29T14:40:58.670Z,4.22
2023-04-29T14:43:25.368Z,1.02
2023-04-29T14:45:51.988Z,1.30
2023-04-29T14:48:18.777Z,1.70
2023-04-29T14:50:45.624Z,1.45
2023-04-29T14:53:12.588Z,2.92
2023-04-29T14:55:39.390Z,1.77
2023-04-29T14:58:06.281Z,1.75
2023-04-29T15:00:32.955Z,1.73
2023-04-29T15:03:02.008Z,1.38
2023-04-29T15:05:30.440Z,1.50
2023-04-29T15:07:58.505Z,1.23
2023-04-29T15:10:25.409Z,1.02
2023-04-29T15:12:52.424Z,2.75
2023-04-29T15:15:19.066Z,2.30
2023-04-29T15:17:45.683Z,2.30
2023-04-29T15:20:12.486Z,1.58
2023-04-29T15:22:39.651Z,3.70
2023-04-29T15:25:07.550Z,1.75
2023-04-29T15:27:34.683Z,1.85
2023-04-29T15:30:01.642Z,2.97
2023-04-29T15:32:32.229Z,1.40
2023-04-29T15:35:00.911Z,1.42
2023-04-29T15:37:27.882Z,1.90
2023-04-29T15:39:55.632Z,1.83
2023-04-29T15:42:22.566Z,1.58
2023-04-29T15:44:49.275Z,1.83
2023-04-29T15:47:16.189Z,1.30
2023-04-29T15:49:42.971Z,2.90
2023-04-29T15:52:09.928Z,1.92
2023-04-29T15:54:36.908Z,3.75
2023-04-29T15:57:04.196Z,1.63
2023-04-29T15:59:31.452Z,1.95
2023-04-29T16:01:58.334Z,2.88
2023-04-29T16:04:25.629Z,1.50
2023-04-29T16:06:52.872Z,2.67
2023-04-29T16:09:19.665Z,4.32
2023-04-29T16:11:46.308Z,1.42
2023-04-29T16:14:13.209Z,1.60
2023-04-29T16:16:39.819Z,2.15
2023-04-29T16:19:06.500Z,1.20
2023-04-29T16:21:34.561Z,2.63
2023-04-29T16:24:01.211Z,1.33
2023-04-29T16:26:28.164Z,2.35
2023-04-29T16:28:54.802Z,1.95
2023-04-29T16:31:21.714Z,2.15
2023-04-29T16:33:48.995Z,2.22
2023-04-29T16:36:15.748Z,3.35
2023-04-29T16:38:42.574Z,5.25
2023-04-29T16:41:09.223Z,2.42
2023-04-29T16:43:36.071Z,2.78
2023-04-29T16:46:02.768Z,4.90
2023-04-29T16:48:29.773Z,3.80
2023-04-29T16:50:57.129Z,4.50
2023-04-29T16:53:23.993Z,4.15
2023-04-29T16:55:51.417Z,4.40
2023-04-29T16:58:18.235Z,5.10
2023-04-29T17:00:45.556Z,4.28
2023-04-29T17:03:12.887Z,4.25
2023-04-29T17:05:39.723Z,4.40
2023-04-29T17:08:06.537Z,2.53
2023-04-29T17:10:33.423Z,3.88
2023-04-29T17:13:00.148Z,9.52
2023-04-29T17:15:26.842Z,6.13
2023-04-29T17:17:55.008Z,5.55
2023-04-29T17:20:21.868Z,5.25
2023-04-29T17:22:48.558Z,5.28
2023-04-29T17:25:16.135Z,6.68
2023-04-29T17:27:47.724Z,5.20
2023-04-29T17:30:14.426Z,5.10
2023-04-29T17:32:43.781Z,6.60
2023-04-29T17:35:10.669Z,4.40
2023-04-29T17:37:37.556Z,6.18
2023-04-29T17:40:04.688Z,4.82
2023-04-29T17:42:31.431Z,5.50
2023-04-29T17:44:58.080Z,5.05
2023-04-29T17:47:24.802Z,5.78
2023-04-29T17:49:52.166Z,5.68
2023-04-29T17:52:21.357Z,5.25
2023-04-29T17:54:49.194Z,6.97
2023-04-29T17:57:16.234Z,6.18
2023-04-29T17:59:43.052Z,4.90
2023-04-29T18:02:09.763Z,4.40
2023-04-29T18:04:37.322Z,4.00
2023-04-29T18:07:04.238Z,4.65
2023-04-29T18:09:31.045Z,10.02
2023-04-29T18:11:58.168Z,6.22
2023-04-29T18:14:27.446Z,11.75
2023-04-29T18:16:54.134Z,7.18
2023-04-29T18:19:20.787Z,6.65
2023-04-29T18:21:47.561Z,6.28
2023-04-29T18:24:14.315Z,6.78
2023-04-29T18:26:41.203Z,4.70
2023-04-29T18:29:07.958Z,14.32
2023-04-29T18:31:34.736Z,7.45
2023-04-29T18:34:01.581Z,5.85
2023-04-29T18:36:29.213Z,6.75
2023-04-29T18:38:55.953Z,6.32
2023-04-29T18:41:22.719Z,7.57
2023-04-29T18:43:49.580Z,5.28
2023-04-29T18:46:16.500Z,9.18
2023-04-29T18:48:43.511Z,5.60
2023-04-29T18:51:10.387Z,6.57
2023-04-29T18:53:37.718Z,12.40
2023-04-29T18:56:04.664Z,8.40
2023-04-29T18:58:31.467Z,7.60
2023-04-29T19:01:02.196Z,5.70
2023-04-29T19:03:29.012Z,6.43
2023-04-29T19:05:55.744Z,8.35
2023-04-29T19:08:22.392Z,6.47
2023-04-29T19:10:49.192Z,7.55
2023-04-29T19:13:16.157Z,7.72
2023-04-29T19:15:42.813Z,14.20
2023-04-29T19:18:09.500Z,7.65
2023-04-29T19:20:36.246Z,6.97
2023-04-29T19:23:02.927Z,6.05
2023-04-29T19:25:31.423Z,9.75
2023-04-29T19:27:58.086Z,6.32
2023-04-29T19:30:25.524Z,7.50
2023-04-29T19:32:52.266Z,6.82
2023-04-29T19:35:18.912Z,10.35
2023-04-29T19:37:45.669Z,7.80
2023-04-29T19:40:12.396Z,9.27
2023-04-29T19:42:39.515Z,5.97
2023-04-29T19:45:07.779Z,5.57
2023-04-29T19:47:34.897Z,7.57
2023-04-29T19:50:02.043Z,6.43
2023-04-29T19:52:29.394Z,6.60
2023-04-29T19:54:56.283Z,7.00
2023-04-29T19:57:22.893Z,7.18
2023-04-29T19:59:49.549Z,7.20
2023-04-29T20:02:16.502Z,7.25
2023-04-29T20:04:43.156Z,5.22
2023-04-29T20:07:09.829Z,6.78
2023-04-29T20:09:37.152Z,6.68
2023-04-29T20:12:03.902Z,6.53
2023-04-29T20:14:30.625Z,6.00
2023-04-29T20:17:00.245Z,5.47
2023-04-29T20:19:27.402Z,5.68
2023-04-29T20:21:54.150Z,5.13
2023-04-29T20:24:20.947Z,6.65
2023-04-29T20:26:47.694Z,6.18
2023-04-29T20:29:14.433Z,7.05
2023-04-29T20:31:41.328Z,6.68
2023-04-29T20:34:08.080Z,6.30
2023-04-29T20:36:34.716Z,6.80
2023-04-29T20:39:01.483Z,6.95
2023-04-29T20:41:29.170Z,4.75
2023-04-29T20:43:56.104Z,8.20
2023-04-29T20:46:25.301Z,20.13
2023-04-29T20:48:52.994Z,5.60
2023-04-29T20:51:19.855Z,6.85
2023-04-29T20:53:47.169Z,8.65
2023-04-29T20:56:14.399Z,7.70
2023-04-29T20:58:41.110Z,6.68
2023-04-29T21:01:08.278Z,6.63
2023-04-29T21:03:34.997Z,6.25
2023-04-29T21:06:01.778Z,6.68
2023-04-29T21:08:28.553Z,7.63
2023-04-29T21:10:56.038Z,8.35
2023-04-29T21:13:22.699Z,18.30
2023-04-29T21:15:49.389Z,7.80
2023-04-29T21:18:16.160Z,9.02
2023-04-29T21:20:42.813Z,6.88
2023-04-29T21:23:09.509Z,7.47
2023-04-29T21:25:36.126Z,6.60
2023-04-29T21:28:02.954Z,6.70
2023-04-29T21:30:29.668Z,6.55
2023-04-29T21:32:56.376Z,7.57
2023-04-29T21:35:23.148Z,6.75
2023-04-29T21:37:49.929Z,8.75
2023-04-29T21:40:16.619Z,8.40
2023-04-29T21:42:43.438Z,9.52
2023-04-29T21:45:10.640Z,6.57
2023-04-29T21:47:37.649Z,6.63
2023-04-29T21:50:04.545Z,8.93
2023-04-29T21:52:34.983Z,6.72
2023-04-29T21:55:03.376Z,8.10
2023-04-29T21:57:42.602Z,7.15
2023-04-29T22:00:28.027Z,7.32
2023-04-29T22:02:54.666Z,7.25
2023-04-29T22:05:21.266Z,7.80
2023-04-29T22:07:47.851Z,6.18
2023-04-29T22:10:14.571Z,9.65
2023-04-29T22:12:41.231Z,7.32
2023-04-29T22:15:17.147Z,7.05
2023-04-29T22:17:54.202Z,7.15
2023-04-29T22:20:21.049Z,7.15
2023-04-29T22:22:47.703Z,7.63
2023-04-29T22:25:14.443Z,6.93
2023-04-29T22:27:41.150Z,6.72
2023-04-29T22:30:08.419Z,8.05
2023-04-29T22:32:35.189Z,7.85
2023-04-29T22:35:01.967Z,6.32
2023-04-29T22:37:28.632Z,9.40
2023-04-29T22:39:56.390Z,8.50
2023-04-29T22:42:23.444Z,9.27
2023-04-29T22:44:50.074Z,8.73
2023-04-29T22:47:16.821Z,8.13
2023-04-29T22:49:43.523Z,7.07
2023-04-29T22:52:10.258Z,11.13
2023-04-29T22:54:36.911Z,7.22
2023-04-29T22:57:04.033Z,9.02
2023-04-29T22:59:30.967Z,6.95
2023-04-29T23:01:57.788Z,6.45
2023-04-29T23:04:25.185Z,6.63
2023-04-29T23:06:52.318Z,6.88
2023-04-29T23:09:19.043Z,5.40
2023-04-29T23:11:45.768Z,6.20
2023-04-29T23:14:12.495Z,6.75
2023-04-29T23:16:39.141Z,6.45
2023-04-29T23:19:05.786Z,5.75
2023-04-29T23:21:32.727Z,7.63
2023-04-29T23:23:59.413Z,6.57
2023-04-29T23:26:26.026Z,8.60
2023-04-29T23:28:52.653Z,7.45
2023-04-29T23:31:19.292Z,7.70
2023-04-29T23:33:46.125Z,8.13
2023-04-29T23:36:12.857Z,7.78
2023-04-29T23:38:39.550Z,7.53
2023-04-29T23:41:06.272Z,5.43
2023-04-29T23:43:33.152Z,7.50
2023-04-29T23:45:59.874Z,8.13
2023-04-29T23:48:26.537Z,6.20
2023-04-29T23:50:53.162Z,8.70
2023-04-29T23:53:19.798Z,8.30
2023-04-29T23:55:46.934Z,7.75
2023-04-29T23:58:13.635Z,7.32
